Time;durP1;ratioP1;P1;durP2;ratioP2;P2;SDS_P1;SDS_P2;PMS_P1;PMS_P2;Temp;Humidity;BMP_temperature;BMP_pressure;BME280_temperature;BME280_humidity;BME280_pressure;Samples;Min_cycle;Max_cycle;Signal;HPM_P1;HPM_P2
2022/06/12 00:00:23;;;;;;;12.90;6.15;;;;;;;;;;2081545;28;20164;-56
2022/06/12 00:01:24;;;;;;;13.25;5.57;;;;;;;;;;2081237;28;20179;-55
2022/06/12 00:02:25;;;;;;;12.13;5.40;;;;;;;;;;2081332;28;20194;-54
2022/06/12 00:03:26;;;;;;;9.45;5.80;;;;;;;;;;2079494;28;20540;-55
2022/06/12 00:04:27;;;;;;;12.30;5.57;;;;;;;;;;2080611;28;20175;-58
2022/06/12 00:05:28;;;;;;;13.93;5.70;;;;;;;;;;2081404;28;20179;-54
2022/06/12 00:06:29;;;;;;;10.90;5.80;;;;;;;;;;2081494;28;20191;-56
2022/06/12 00:07:29;;;;;;;15.35;5.97;;;;;;;;;;2080739;28;20588;-56
2022/06/12 00:08:31;;;;;;;13.68;5.93;;;;;;;;;;2080738;28;20247;-54
2022/06/12 00:09:31;;;;;;;13.18;5.85;;;;;;;;;;2081291;28;20169;-56
2022/06/12 00:10:32;;;;;;;16.65;5.65;;;;;;;;;;2081335;28;20647;-54
2022/06/12 00:11:34;;;;;;;9.40;5.38;;;;;;;;;;2081122;28;20255;-56
2022/06/12 00:12:36;;;;;;;7.70;5.30;;;;;;;;;;2082612;28;20168;-56
2022/06/12 00:13:39;;;;;;;15.30;6.28;;;;;;;;;;2074593;28;20196;-56
2022/06/12 00:14:39;;;;;;;12.45;5.72;;;;;;;;;;2074076;28;20188;-54
2022/06/12 00:15:40;;;;;;;13.70;6.93;;;;;;;;;;2074544;28;20586;-56
2022/06/12 00:16:41;;;;;;;14.45;6.60;;;;;;;;;;2074884;28;20169;-54
2022/06/12 00:17:43;;;;;;;8.98;5.85;;;;;;;;;;2075242;28;20185;-55
2022/06/12 00:18:44;;;;;;;12.00;5.55;;;;;;;;;;2075717;28;20177;-55
2022/06/12 00:19:44;;;;;;;14.70;7.55;;;;;;;;;;2081587;28;20240;-53
2022/06/12 00:20:45;;;;;;;14.57;6.70;;;;;;;;;;2073658;28;20177;-54
2022/06/12 00:21:45;;;;;;;15.00;7.47;;;;;;;;;;2081933;28;20203;-52
2022/06/12 00:22:46;;;;;;;17.52;8.35;;;;;;;;;;2081735;28;20256;-52
2022/06/12 00:23:54;;;;;;;13.25;7.18;;;;;;;;;;2081323;28;20169;-60
2022/06/12 00:24:54;;;;;;;13.25;6.43;;;;;;;;;;2080923;28;20536;-55
2022/06/12 00:25:55;;;;;;;16.25;6.93;;;;;;;;;;2077444;28;20213;-54
2022/06/12 00:26:56;;;;;;;12.57;7.13;;;;;;;;;;2077378;28;20188;-57
2022/06/12 00:27:56;;;;;;;14.90;7.28;;;;;;;;;;2078025;28;20172;-53
2022/06/12 00:29:02;;;;;;;15.20;7.43;;;;;;;;;;2075106;28;20180;-56
2022/06/12 00:30:04;;;;;;;13.77;7.38;;;;;;;;;;2074233;28;20219;-54
2022/06/12 00:31:04;;;;;;;15.45;7.75;;;;;;;;;;2074661;28;20820;-56
2022/06/12 00:32:07;;;;;;;11.50;6.40;;;;;;;;;;2074661;28;20177;-57
2022/06/12 00:33:07;;;;;;;13.63;6.63;;;;;;;;;;2074576;28;20572;-55
2022/06/12 00:34:08;;;;;;;11.10;6.43;;;;;;;;;;2075607;28;20177;-55
2022/06/12 00:35:09;;;;;;;12.88;6.63;;;;;;;;;;2082553;28;20176;-57
2022/06/12 00:36:09;;;;;;;12.98;6.20;;;;;;;;;;2082611;28;20688;-54
2022/06/12 00:37:11;;;;;;;9.35;6.10;;;;;;;;;;2082654;28;20183;-56
2022/06/12 00:38:11;;;;;;;11.90;6.38;;;;;;;;;;2082610;28;20184;-55
2022/06/12 00:39:12;;;;;;;13.00;5.85;;;;;;;;;;2082576;28;20622;-56
2022/06/12 00:40:13;;;;;;;14.55;5.93;;;;;;;;;;2082723;28;20534;-55
2022/06/12 00:41:13;;;;;;;10.07;5.80;;;;;;;;;;2082491;28;20184;-54
2022/06/12 00:42:19;;;;;;;11.93;6.15;;;;;;;;;;2082679;28;20176;-56
2022/06/12 00:43:20;;;;;;;18.42;6.55;;;;;;;;;;2082475;28;20200;-54
2022/06/12 00:44:23;;;;;;;13.30;6.35;;;;;;;;;;2081757;28;20653;-54
2022/06/12 00:45:39;;;;;;;11.32;6.10;;;;;;;;;;2082486;28;20200;-56
2022/06/12 00:46:46;;;;;;;11.55;6.35;;;;;;;;;;2082530;28;20172;-57
2022/06/12 00:47:46;;;;;;;17.27;6.68;;;;;;;;;;2082590;28;20169;-54
2022/06/12 00:48:47;;;;;;;12.52;6.10;;;;;;;;;;2082471;28;20668;-55
2022/06/12 00:49:50;;;;;;;12.15;5.78;;;;;;;;;;2082496;28;20250;-55
2022/06/12 00:51:09;;;;;;;13.82;6.18;;;;;;;;;;2082450;28;20183;-53
2022/06/12 00:52:11;;;;;;;14.20;5.85;;;;;;;;;;2082561;28;20199;-56
2022/06/12 00:53:15;;;;;;;15.55;5.90;;;;;;;;;;2082582;28;20176;-57
2022/06/12 00:54:16;;;;;;;12.90;6.63;;;;;;;;;;2081542;28;20195;-54
2022/06/12 00:55:35;;;;;;;16.23;6.55;;;;;;;;;;2082379;28;20178;-55
2022/06/12 00:56:38;;;;;;;13.18;6.78;;;;;;;;;;2082663;28;20184;-53
2022/06/12 00:57:39;;;;;;;11.05;6.32;;;;;;;;;;2082465;28;20157;-53
2022/06/12 00:58:41;;;;;;;11.38;6.13;;;;;;;;;;2081903;28;20250;-58
2022/06/12 00:59:47;;;;;;;11.93;6.22;;;;;;;;;;2081570;28;20223;-56
2022/06/12 01:00:48;;;;;;;12.52;8.15;;;;;;;;;;2082483;28;20163;-56
2022/06/12 01:01:51;;;;;;;15.85;7.18;;;;;;;;;;2082321;28;20215;-55
2022/06/12 01:02:52;;;;;;;12.55;6.25;;;;;;;;;;2082312;28;20168;-55
2022/06/12 01:06:33;;;;;;;15.15;6.63;;;;;;;;;;2082470;28;20156;-56
2022/06/12 01:07:40;;;;;;;14.73;6.45;;;;;;;;;;2082328;28;20218;-58
2022/06/12 01:08:40;;;;;;;10.85;6.78;;;;;;;;;;2082487;28;20168;-56
2022/06/12 01:09:42;;;;;;;11.02;6.15;;;;;;;;;;2082326;28;20610;-58
2022/06/12 01:10:45;;;;;;;11.10;6.18;;;;;;;;;;2082316;28;20164;-56
2022/06/12 01:11:47;;;;;;;12.23;6.45;;;;;;;;;;2082464;28;20214;-54
2022/06/12 01:12:50;;;;;;;9.25;5.65;;;;;;;;;;2082450;28;20636;-56
2022/06/12 01:13:50;;;;;;;16.92;7.57;;;;;;;;;;2082352;28;20161;-54
2022/06/12 01:14:53;;;;;;;11.25;7.43;;;;;;;;;;2081468;28;20221;-55
2022/06/12 01:15:59;;;;;;;14.15;6.72;;;;;;;;;;2082262;28;20259;-56
2022/06/12 01:16:59;;;;;;;12.82;6.55;;;;;;;;;;2082426;28;20171;-56
2022/06/12 01:18:00;;;;;;;17.60;6.32;;;;;;;;;;2082321;28;20640;-54
2022/06/12 01:19:01;;;;;;;14.73;8.90;;;;;;;;;;2082369;28;20255;-58
2022/06/12 01:20:07;;;;;;;12.07;7.43;;;;;;;;;;2082336;28;20175;-55
2022/06/12 01:21:17;;;;;;;13.88;7.28;;;;;;;;;;2082458;28;20182;-56
2022/06/12 01:22:38;;;;;;;12.80;6.90;;;;;;;;;;2082509;28;20168;-55
2022/06/12 01:23:57;;;;;;;10.77;6.10;;;;;;;;;;2079596;28;20219;-58
2022/06/12 01:25:03;;;;;;;14.20;6.40;;;;;;;;;;2082069;28;20260;-56
2022/06/12 01:26:14;;;;;;;9.77;6.50;;;;;;;;;;2082070;28;20215;-55
2022/06/12 01:27:14;;;;;;;12.80;6.82;;;;;;;;;;2082385;28;20195;-55
2022/06/12 01:28:33;;;;;;;14.20;6.50;;;;;;;;;;2082251;28;20172;-56
2022/06/12 01:29:52;;;;;;;10.88;6.70;;;;;;;;;;2082310;28;20188;-54
2022/06/12 01:31:06;;;;;;;12.63;6.60;;;;;;;;;;2082233;28;20156;-55
2022/06/12 01:32:06;;;;;;;14.40;7.25;;;;;;;;;;2082098;28;20580;-55
2022/06/12 01:33:09;;;;;;;11.48;6.65;;;;;;;;;;2082206;28;20174;-58
2022/06/12 01:34:19;;;;;;;17.98;7.13;;;;;;;;;;2081102;28;20203;-55
2022/06/12 01:35:22;;;;;;;15.35;6.50;;;;;;;;;;2082413;28;20204;-56
2022/06/12 01:36:31;;;;;;;9.95;6.75;;;;;;;;;;2082106;28;20184;-54
2022/06/12 01:37:45;;;;;;;16.90;6.70;;;;;;;;;;2082304;28;20684;-54
2022/06/12 01:38:52;;;;;;;8.23;6.78;;;;;;;;;;2082277;28;20219;-54
2022/06/12 01:40:06;;;;;;;11.65;6.28;;;;;;;;;;2082297;28;20160;-56
2022/06/12 01:41:19;;;;;;;15.52;6.65;;;;;;;;;;2082109;28;20190;-54
2022/06/12 01:42:19;;;;;;;13.15;6.68;;;;;;;;;;2082304;28;20163;-55
2022/06/12 01:43:27;;;;;;;21.80;7.18;;;;;;;;;;2081899;28;20239;-56
2022/06/12 01:44:35;;;;;;;9.85;6.70;;;;;;;;;;2081329;28;20156;-57
2022/06/12 01:45:43;;;;;;;9.73;6.75;;;;;;;;;;2082084;28;20220;-55
2022/06/12 01:47:03;;;;;;;12.35;6.88;;;;;;;;;;2082024;28;20208;-56
2022/06/12 01:48:10;;;;;;;10.98;6.10;;;;;;;;;;2074703;28;20210;-56
2022/06/12 01:49:17;;;;;;;10.35;6.60;;;;;;;;;;2082056;28;20180;-57
2022/06/12 01:50:19;;;;;;;14.23;7.10;;;;;;;;;;2082052;28;20211;-57
2022/06/12 01:51:29;;;;;;;11.88;7.80;;;;;;;;;;2081945;28;20663;-55
2022/06/12 01:52:37;;;;;;;12.82;7.97;;;;;;;;;;2082124;28;20261;-58
2022/06/12 01:53:41;;;;;;;7.95;6.43;;;;;;;;;;2082160;28;20172;-55
2022/06/12 01:54:46;;;;;;;13.20;6.63;;;;;;;;;;2080788;28;20184;-58
2022/06/12 01:55:50;;;;;;;15.88;7.18;;;;;;;;;;2081488;28;20206;-55
2022/06/12 01:56:53;;;;;;;11.15;6.55;;;;;;;;;;2082025;28;20168;-55
2022/06/12 01:57:56;;;;;;;14.02;6.78;;;;;;;;;;2081845;28;20172;-53
2022/06/12 01:58:57;;;;;;;17.45;6.38;;;;;;;;;;2082052;28;20223;-54
2022/06/12 01:59:58;;;;;;;12.38;6.47;;;;;;;;;;2082027;28;20590;-56
2022/06/12 02:01:22;;;;;;;9.05;6.10;;;;;;;;;;2082123;28;20279;-55
2022/06/12 02:02:29;;;;;;;11.45;7.07;;;;;;;;;;2082121;28;20172;-55
2022/06/12 02:03:38;;;;;;;14.27;6.50;;;;;;;;;;2079905;28;20744;-54
2022/06/12 02:04:38;;;;;;;16.77;6.60;;;;;;;;;;2081201;28;20184;-55
2022/06/12 02:05:44;;;;;;;15.35;6.38;;;;;;;;;;2081766;28;20184;-57
2022/06/12 02:07:00;;;;;;;10.18;6.78;;;;;;;;;;2082043;28;20203;-55
2022/06/12 02:08:04;;;;;;;11.43;6.53;;;;;;;;;;2081835;28;20191;-53
2022/06/12 02:09:09;;;;;;;15.75;6.32;;;;;;;;;;2082003;28;20641;-57
2022/06/12 02:10:13;;;;;;;13.52;6.60;;;;;;;;;;2082033;28;20172;-53
2022/06/12 02:14:00;;;;;;;11.82;6.10;;;;;;;;;;2073116;28;20164;-54
2022/06/12 02:15:04;;;;;;;18.25;6.53;;;;;;;;;;2073568;28;20268;-55
2022/06/12 02:16:08;;;;;;;16.23;6.75;;;;;;;;;;2073836;28;20180;-55
2022/06/12 02:17:11;;;;;;;14.07;7.03;;;;;;;;;;2073567;28;20582;-55
2022/06/12 02:18:24;;;;;;;10.57;6.13;;;;;;;;;;2073046;28;20165;-53
2022/06/12 02:19:27;;;;;;;10.63;6.38;;;;;;;;;;2073045;28;20176;-56
2022/06/12 02:20:31;;;;;;;8.27;5.88;;;;;;;;;;2073242;28;20161;-54
2022/06/12 02:21:58;;;;;;;14.48;7.10;;;;;;;;;;2073738;28;20664;-54
2022/06/12 02:22:59;;;;;;;13.98;6.28;;;;;;;;;;2069011;28;20181;-55
2022/06/12 02:24:02;;;;;;;10.15;6.40;;;;;;;;;;2072895;28;20271;-59
2022/06/12 02:25:05;;;;;;;11.77;6.63;;;;;;;;;;2073778;28;20600;-54
2022/06/12 02:26:08;;;;;;;10.40;6.85;;;;;;;;;;2085487;22;20189;-58
2022/06/12 02:27:11;;;;;;;10.88;6.57;;;;;;;;;;2080618;28;20183;-55
2022/06/12 02:28:19;;;;;;;13.52;6.90;;;;;;;;;;2080400;28;20644;-57
2022/06/12 02:29:21;;;;;;;12.15;6.25;;;;;;;;;;2080207;28;20172;-54
2022/06/12 02:30:27;;;;;;;12.15;6.82;;;;;;;;;;2080776;28;20230;-58
2022/06/12 02:31:30;;;;;;;12.85;6.57;;;;;;;;;;2082833;28;20172;-55
2022/06/12 02:32:34;;;;;;;12.43;6.55;;;;;;;;;;2082672;28;20176;-57
2022/06/12 02:33:36;;;;;;;11.55;6.60;;;;;;;;;;2083066;28;20176;-55
2022/06/12 02:34:39;;;;;;;11.02;6.50;;;;;;;;;;2080451;28;20222;-58
2022/06/12 02:35:49;;;;;;;10.75;6.28;;;;;;;;;;2083339;28;20250;-59
2022/06/12 02:36:52;;;;;;;12.60;7.45;;;;;;;;;;2079217;28;20948;-59
2022/06/12 02:38:16;;;;;;;13.40;7.35;;;;;;;;;;2069245;28;20193;-60
2022/06/12 02:39:19;;;;;;;13.65;6.63;;;;;;;;;;2071787;28;20227;-56
2022/06/12 02:40:22;;;;;;;13.57;7.00;;;;;;;;;;2074624;28;20219;-54
2022/06/12 02:41:26;;;;;;;13.68;6.75;;;;;;;;;;2074679;28;20176;-55
2022/06/12 02:42:34;;;;;;;14.68;6.90;;;;;;;;;;2075653;28;20189;-54
2022/06/12 02:43:38;;;;;;;10.82;6.70;;;;;;;;;;2073834;28;20222;-54
2022/06/12 02:44:45;;;;;;;10.90;6.90;;;;;;;;;;2066470;28;20176;-57
2022/06/12 02:46:05;;;;;;;14.25;7.35;;;;;;;;;;2074750;28;20521;-57
2022/06/12 02:47:08;;;;;;;14.25;6.50;;;;;;;;;;2074742;28;20181;-55
2022/06/12 02:48:09;;;;;;;11.55;6.47;;;;;;;;;;2075281;28;20169;-59
2022/06/12 02:49:09;;;;;;;11.98;7.18;;;;;;;;;;2075031;28;20628;-57
2022/06/12 02:50:11;;;;;;;16.27;7.78;;;;;;;;;;2075430;28;20511;-55
2022/06/12 02:51:17;;;;;;;12.55;7.88;;;;;;;;;;2074845;28;20188;-55
2022/06/12 02:52:20;;;;;;;12.02;8.00;;;;;;;;;;2074201;28;20165;-54
2022/06/12 02:53:26;;;;;;;13.75;9.07;;;;;;;;;;2074421;28;20195;-57
2022/06/12 02:54:33;;;;;;;10.25;7.32;;;;;;;;;;2073324;28;20170;-58
2022/06/12 02:55:41;;;;;;;18.83;8.75;;;;;;;;;;2074731;28;20173;-54
2022/06/12 02:56:47;;;;;;;10.80;7.90;;;;;;;;;;2074457;28;20243;-55
2022/06/12 02:57:47;;;;;;;14.60;8.50;;;;;;;;;;2074105;28;20165;-57
2022/06/12 02:58:53;;;;;;;13.48;7.65;;;;;;;;;;2073946;28;20185;-56
2022/06/12 03:00:13;;;;;;;14.60;7.18;;;;;;;;;;2074594;28;20157;-56
2022/06/12 03:01:16;;;;;;;14.25;7.75;;;;;;;;;;2074096;28;20200;-58
2022/06/12 03:02:19;;;;;;;13.80;7.97;;;;;;;;;;2074598;28;20172;-58
2022/06/12 03:03:23;;;;;;;18.00;8.30;;;;;;;;;;2074294;28;20211;-55
2022/06/12 03:04:29;;;;;;;14.68;7.93;;;;;;;;;;2073992;28;20165;-60
2022/06/12 03:05:31;;;;;;;13.55;7.53;;;;;;;;;;2074131;28;20184;-55
2022/06/12 03:06:32;;;;;;;10.63;6.82;;;;;;;;;;2074162;28;20673;-57
2022/06/12 03:07:33;;;;;;;13.30;7.68;;;;;;;;;;2073980;28;20165;-53
2022/06/12 03:08:36;;;;;;;13.60;7.85;;;;;;;;;;2071919;28;20688;-56
2022/06/12 03:09:36;;;;;;;11.82;7.15;;;;;;;;;;2073623;28;20169;-53
2022/06/12 03:10:38;;;;;;;15.85;7.38;;;;;;;;;;2068736;28;20639;-55
2022/06/12 03:11:40;;;;;;;12.60;7.60;;;;;;;;;;2065832;28;20177;-55
2022/06/12 03:12:41;;;;;;;13.20;7.68;;;;;;;;;;2065345;28;20165;-54
2022/06/12 03:13:42;;;;;;;11.43;8.20;;;;;;;;;;2065531;28;20678;-55
2022/06/12 03:14:42;;;;;;;13.07;7.25;;;;;;;;;;2064551;28;20200;-51
2022/06/12 03:15:54;;;;;;;16.23;7.07;;;;;;;;;;2065502;28;20197;-55
2022/06/12 03:16:54;;;;;;;11.68;7.43;;;;;;;;;;2065391;28;20193;-50
2022/06/12 03:17:56;;;;;;;14.57;7.70;;;;;;;;;;2065484;28;20714;-60
2022/06/12 03:18:58;;;;;;;9.63;6.80;;;;;;;;;;2065406;28;20181;-53
2022/06/12 03:19:58;;;;;;;12.63;7.70;;;;;;;;;;2065460;28;20158;-54
2022/06/12 03:20:59;;;;;;;14.30;7.93;;;;;;;;;;2064714;28;20176;-58
2022/06/12 03:22:05;;;;;;;13.98;7.65;;;;;;;;;;2064796;28;20294;-55
2022/06/12 03:23:21;;;;;;;12.00;7.35;;;;;;;;;;2064571;28;20185;-54
2022/06/12 03:24:29;;;;;;;13.75;7.43;;;;;;;;;;2064228;28;20188;-60
2022/06/12 03:25:36;;;;;;;14.50;7.90;;;;;;;;;;2065403;28;20535;-57
2022/06/12 03:26:37;;;;;;;12.02;7.53;;;;;;;;;;2065363;28;20251;-57
2022/06/12 03:27:37;;;;;;;12.80;7.57;;;;;;;;;;2065448;28;20239;-60
2022/06/12 03:28:41;;;;;;;16.20;7.55;;;;;;;;;;2065486;28;20165;-56
2022/06/12 03:29:55;;;;;;;15.65;7.72;;;;;;;;;;2065439;28;20259;-58
2022/06/12 03:31:16;;;;;;;16.30;7.97;;;;;;;;;;2065716;28;20149;-56
2022/06/12 03:32:18;;;;;;;13.38;7.57;;;;;;;;;;2065611;28;20158;-54
2022/06/12 03:33:37;;;;;;;15.77;8.23;;;;;;;;;;2065502;28;20208;-52
2022/06/12 03:34:37;;;;;;;16.40;8.20;;;;;;;;;;2068091;28;20177;-54
2022/06/12 03:35:42;;;;;;;15.48;7.53;;;;;;;;;;2073811;28;20196;-61
2022/06/12 03:36:53;;;;;;;14.98;8.30;;;;;;;;;;2073769;28;20251;-53
2022/06/12 03:38:12;;;;;;;12.65;7.90;;;;;;;;;;2073741;28;20166;-58
2022/06/12 03:39:42;;;;;;;13.73;8.73;;;;;;;;;;2073793;28;20259;-53
2022/06/12 03:40:49;;;;;;;15.20;8.13;;;;;;;;;;2064648;28;20256;-55
2022/06/12 03:41:55;;;;;;;11.50;7.60;;;;;;;;;;2064477;28;20193;-57
2022/06/12 03:43:05;;;;;;;15.98;8.40;;;;;;;;;;2073307;28;20157;-54
2022/06/12 03:44:14;;;;;;;13.85;8.13;;;;;;;;;;2079901;28;20250;-54
2022/06/12 03:45:31;;;;;;;10.70;8.18;;;;;;;;;;2079758;28;20226;-56
2022/06/12 03:46:55;;;;;;;12.70;7.03;;;;;;;;;;2073171;28;20200;-58
2022/06/12 03:48:04;;;;;;;11.35;7.70;;;;;;;;;;2074807;28;20156;-55
2022/06/12 03:49:16;;;;;;;14.68;7.63;;;;;;;;;;2074433;28;20201;-50
2022/06/12 03:50:20;;;;;;;11.98;7.43;;;;;;;;;;2074356;28;20720;-54
2022/06/12 03:51:41;;;;;;;10.95;7.13;;;;;;;;;;2075100;28;20173;-57
2022/06/12 03:52:56;;;;;;;15.45;7.00;;;;;;;;;;2073798;28;20268;-56
2022/06/12 03:54:00;;;;;;;15.90;7.10;;;;;;;;;;2073939;28;20705;-59
2022/06/12 03:55:00;;;;;;;13.98;6.65;;;;;;;;;;2074351;28;20161;-57
2022/06/12 03:58:45;;;;;;;12.00;7.22;;;;;;;;;;2074467;28;20165;-60
2022/06/12 04:00:03;;;;;;;14.48;7.20;;;;;;;;;;2074917;28;20537;-55
2022/06/12 04:01:12;;;;;;;15.35;7.45;;;;;;;;;;2074964;28;20160;-56
2022/06/12 04:02:14;;;;;;;13.07;6.88;;;;;;;;;;2075090;28;20181;-58
2022/06/12 04:03:15;;;;;;;10.95;7.00;;;;;;;;;;2074837;28;20732;-55
2022/06/12 04:04:16;;;;;;;12.90;7.03;;;;;;;;;;2073363;28;20176;-52
2022/06/12 04:05:21;;;;;;;15.13;7.03;;;;;;;;;;2074238;28;20235;-53
2022/06/12 04:06:23;;;;;;;9.48;6.93;;;;;;;;;;2074789;28;20188;-54
2022/06/12 04:07:24;;;;;;;12.77;7.68;;;;;;;;;;2074670;28;20192;-59
2022/06/12 04:08:27;;;;;;;15.07;7.28;;;;;;;;;;2075013;28;20550;-56
2022/06/12 04:09:28;;;;;;;13.35;8.40;;;;;;;;;;2073607;28;20197;-58
2022/06/12 04:10:32;;;;;;;13.70;7.63;;;;;;;;;;2082274;28;20226;-55
2022/06/12 04:11:34;;;;;;;15.02;7.18;;;;;;;;;;2082091;28;20168;-57
2022/06/12 04:12:34;;;;;;;12.95;7.15;;;;;;;;;;2074790;28;20223;-54
2022/06/12 04:13:37;;;;;;;15.82;8.25;;;;;;;;;;2074634;28;20176;-55
2022/06/12 04:14:41;;;;;;;12.55;8.18;;;;;;;;;;2074076;28;20188;-54
2022/06/12 04:15:51;;;;;;;15.63;8.25;;;;;;;;;;2074632;28;20173;-54
2022/06/12 04:16:54;;;;;;;15.57;8.05;;;;;;;;;;2074814;28;20169;-57
2022/06/12 04:17:56;;;;;;;13.30;8.20;;;;;;;;;;2074624;28;20177;-56
2022/06/12 04:18:56;;;;;;;12.52;7.47;;;;;;;;;;2074788;28;20546;-60
2022/06/12 04:20:00;;;;;;;11.63;7.43;;;;;;;;;;2074746;28;20172;-54
2022/06/12 04:21:02;;;;;;;16.15;7.55;;;;;;;;;;2074877;28;20169;-52
2022/06/12 04:22:02;;;;;;;13.93;7.22;;;;;;;;;;2074636;28;20173;-57
2022/06/12 04:23:12;;;;;;;9.95;7.22;;;;;;;;;;2074682;28;20202;-59
2022/06/12 04:24:16;;;;;;;16.73;7.13;;;;;;;;;;2073768;28;20172;-56
2022/06/12 04:25:32;;;;;;;14.95;6.93;;;;;;;;;;2074832;28;20185;-56
2022/06/12 04:26:32;;;;;;;11.63;6.70;;;;;;;;;;2074479;28;20275;-58
2022/06/12 04:27:34;;;;;;;17.52;6.90;;;;;;;;;;2074766;28;20212;-59
2022/06/12 04:28:36;;;;;;;14.23;7.50;;;;;;;;;;2074690;28;20180;-56
2022/06/12 04:29:38;;;;;;;11.98;7.53;;;;;;;;;;2074703;28;20196;-51
2022/06/12 04:30:38;;;;;;;13.80;6.80;;;;;;;;;;2074433;28;20175;-56
2022/06/12 04:31:43;;;;;;;12.70;7.53;;;;;;;;;;2074700;28;20180;-54
2022/06/12 04:32:44;;;;;;;10.07;7.30;;;;;;;;;;2074589;28;20633;-58
2022/06/12 04:34:02;;;;;;;13.82;7.55;;;;;;;;;;2074687;28;20184;-54
2022/06/12 04:35:03;;;;;;;12.10;6.80;;;;;;;;;;2067030;28;20176;-57
2022/06/12 04:36:04;;;;;;;19.98;8.27;;;;;;;;;;2066469;28;20583;-59
2022/06/12 04:37:18;;;;;;;9.32;6.47;;;;;;;;;;2066964;28;20669;-50
2022/06/12 04:38:19;;;;;;;10.90;6.90;;;;;;;;;;2066755;28;20602;-55
2022/06/12 04:39:22;;;;;;;13.90;7.53;;;;;;;;;;2066469;28;20166;-56
2022/06/12 04:40:24;;;;;;;13.75;6.88;;;;;;;;;;2066019;28;20212;-55
2022/06/12 04:41:31;;;;;;;11.65;7.47;;;;;;;;;;2050041;28;20262;-53
2022/06/12 04:42:32;;;;;;;12.15;7.20;;;;;;;;;;2058996;28;20243;-57
2022/06/12 04:43:33;;;;;;;12.48;7.30;;;;;;;;;;2074100;28;20595;-55
2022/06/12 04:44:33;;;;;;;13.95;7.15;;;;;;;;;;2073699;28;20173;-54
2022/06/12 04:45:34;;;;;;;11.32;7.32;;;;;;;;;;2074501;28;20633;-57
2022/06/12 04:46:35;;;;;;;8.15;6.60;;;;;;;;;;2074577;28;20200;-56
2022/06/12 04:47:36;;;;;;;13.98;6.22;;;;;;;;;;2074553;28;20165;-54
2022/06/12 04:48:39;;;;;;;11.15;6.05;;;;;;;;;;2074755;28;20180;-58
2022/06/12 04:49:39;;;;;;;9.75;5.60;;;;;;;;;;2074622;28;20173;-56
2022/06/12 04:50:40;;;;;;;7.90;5.88;;;;;;;;;;2075114;28;20180;-55
2022/06/12 04:51:41;;;;;;;11.88;5.30;;;;;;;;;;2075003;28;20169;-56
2022/06/12 04:52:41;;;;;;;9.38;4.63;;;;;;;;;;2075263;28;20192;-57
2022/06/12 04:53:42;;;;;;;10.07;4.57;;;;;;;;;;2075160;28;20315;-55
2022/06/12 04:54:43;;;;;;;6.70;3.97;;;;;;;;;;2072181;28;20520;-59
2022/06/12 04:55:44;;;;;;;7.35;4.05;;;;;;;;;;2074832;28;20177;-57
2022/06/12 04:56:44;;;;;;;6.70;3.65;;;;;;;;;;2074874;28;20199;-58
2022/06/12 04:57:45;;;;;;;8.43;4.30;;;;;;;;;;2074690;28;20213;-54
2022/06/12 04:58:45;;;;;;;8.02;4.15;;;;;;;;;;2074485;28;20165;-59
2022/06/12 04:59:47;;;;;;;6.75;4.18;;;;;;;;;;2074767;28;20192;-58
2022/06/12 05:00:47;;;;;;;7.38;3.72;;;;;;;;;;2074733;28;20176;-57
2022/06/12 05:01:48;;;;;;;6.82;3.58;;;;;;;;;;2074571;28;20531;-55
2022/06/12 05:02:48;;;;;;;8.05;4.22;;;;;;;;;;2074499;28;20185;-55
2022/06/12 05:03:48;;;;;;;6.90;4.15;;;;;;;;;;2074440;28;20196;-55
2022/06/12 05:04:49;;;;;;;9.82;3.75;;;;;;;;;;2073438;28;20256;-55
2022/06/12 05:05:50;;;;;;;8.05;3.92;;;;;;;;;;2072801;28;20200;-57
2022/06/12 05:06:50;;;;;;;7.38;3.58;;;;;;;;;;2074534;28;20176;-57
2022/06/12 05:07:51;;;;;;;3.70;3.13;;;;;;;;;;2073898;28;20201;-55
2022/06/12 05:08:52;;;;;;;6.70;3.20;;;;;;;;;;2073995;28;20157;-58
2022/06/12 05:09:53;;;;;;;8.50;3.70;;;;;;;;;;2074577;28;20172;-57
2022/06/12 05:10:53;;;;;;;7.00;3.42;;;;;;;;;;2074588;28;20619;-56
2022/06/12 05:11:54;;;;;;;7.63;3.47;;;;;;;;;;2074477;28;20157;-57
2022/06/12 05:12:54;;;;;;;6.65;3.20;;;;;;;;;;2074367;28;20172;-58
2022/06/12 05:13:55;;;;;;;7.72;3.47;;;;;;;;;;2073364;28;20189;-56
2022/06/12 05:14:55;;;;;;;8.25;3.33;;;;;;;;;;2073490;28;20165;-54
2022/06/12 05:15:55;;;;;;;9.27;3.00;;;;;;;;;;2074271;28;20614;-52
2022/06/12 05:16:58;;;;;;;9.55;3.88;;;;;;;;;;2074550;28;20165;-58
2022/06/12 05:17:58;;;;;;;5.88;3.22;;;;;;;;;;2074435;28;20252;-55
2022/06/12 05:18:59;;;;;;;11.85;4.13;;;;;;;;;;2074484;28;20507;-56
2022/06/12 05:19:59;;;;;;;9.38;3.67;;;;;;;;;;2074233;28;20255;-56
2022/06/12 05:20:59;;;;;;;8.60;3.78;;;;;;;;;;2074494;28;20161;-52
2022/06/12 05:22:01;;;;;;;8.15;3.67;;;;;;;;;;2074434;28;20270;-55
2022/06/12 05:23:01;;;;;;;9.65;3.53;;;;;;;;;;2074512;28;20181;-52
2022/06/12 05:24:02;;;;;;;5.53;3.38;;;;;;;;;;2074134;28;20168;-54
2022/06/12 05:25:03;;;;;;;8.27;3.90;;;;;;;;;;2075853;28;20264;-57
2022/06/12 05:26:03;;;;;;;8.15;3.42;;;;;;;;;;2075015;28;20189;-53
2022/06/12 05:27:08;;;;;;;7.97;3.53;;;;;;;;;;2075419;28;20153;-59
2022/06/12 05:28:10;;;;;;;7.25;3.25;;;;;;;;;;2074327;28;20161;-55
2022/06/12 05:29:21;;;;;;;6.90;3.60;;;;;;;;;;2074538;28;20165;-59
2022/06/12 05:30:25;;;;;;;7.57;3.40;;;;;;;;;;2074442;28;20173;-56
2022/06/12 05:31:26;;;;;;;9.95;4.03;;;;;;;;;;2074548;28;20161;-50
2022/06/12 05:32:26;;;;;;;10.07;3.58;;;;;;;;;;2074279;28;20200;-52
2022/06/12 05:33:27;;;;;;;6.75;3.58;;;;;;;;;;2074271;28;20637;-57
2022/06/12 05:34:28;;;;;;;6.32;3.47;;;;;;;;;;2070593;28;20189;-55
2022/06/12 05:35:29;;;;;;;7.35;3.33;;;;;;;;;;2066199;28;20176;-55
2022/06/12 05:36:30;;;;;;;8.00;3.78;;;;;;;;;;2066225;28;20670;-55
2022/06/12 05:37:30;;;;;;;5.63;3.25;;;;;;;;;;2064620;28;20170;-52
2022/06/12 05:38:30;;;;;;;10.98;3.22;;;;;;;;;;2066165;28;20169;-56
2022/06/12 05:39:31;;;;;;;7.18;3.17;;;;;;;;;;2066290;28;20181;-56
2022/06/12 05:40:36;;;;;;;8.32;3.85;;;;;;;;;;2066319;28;20186;-55
2022/06/12 05:41:37;;;;;;;7.70;3.70;;;;;;;;;;2066514;28;20220;-56
2022/06/12 05:42:38;;;;;;;5.22;3.28;;;;;;;;;;2066304;28;20681;-55
2022/06/12 05:43:40;;;;;;;6.70;3.05;;;;;;;;;;2066036;28;20665;-56
2022/06/12 05:44:41;;;;;;;5.70;3.22;;;;;;;;;;2064893;28;20186;-51
2022/06/12 05:45:41;;;;;;;6.68;3.92;;;;;;;;;;2065862;28;20166;-55
2022/06/12 05:46:43;;;;;;;9.48;3.55;;;;;;;;;;2066024;28;20201;-56
2022/06/12 05:47:48;;;;;;;8.43;3.13;;;;;;;;;;2066415;28;20165;-54
2022/06/12 05:48:48;;;;;;;5.03;3.67;;;;;;;;;;2065656;28;20162;-55
2022/06/12 05:49:48;;;;;;;8.20;3.13;;;;;;;;;;2067792;28;20197;-58
2022/06/12 05:50:51;;;;;;;13.82;3.38;;;;;;;;;;2074278;28;20161;-55
2022/06/12 05:51:52;;;;;;;9.13;3.60;;;;;;;;;;2074265;28;20335;-56
2022/06/12 05:52:52;;;;;;;7.28;2.90;;;;;;;;;;2074286;28;20180;-53
2022/06/12 05:53:53;;;;;;;8.27;2.88;;;;;;;;;;2072016;28;20551;-52
2022/06/12 05:54:53;;;;;;;6.38;3.42;;;;;;;;;;2073924;28;20177;-59
2022/06/12 05:55:54;;;;;;;7.10;3.67;;;;;;;;;;2073501;28;20173;-55
2022/06/12 05:56:55;;;;;;;8.63;3.13;;;;;;;;;;2073894;28;20181;-52
2022/06/12 05:57:55;;;;;;;7.90;3.50;;;;;;;;;;2074352;28;20165;-55
2022/06/12 05:58:56;;;;;;;7.60;3.95;;;;;;;;;;2074516;28;20180;-55
2022/06/12 05:59:58;;;;;;;9.63;3.22;;;;;;;;;;2074268;28;20185;-55
2022/06/12 06:00:58;;;;;;;6.40;3.47;;;;;;;;;;2074541;28;20172;-53
2022/06/12 06:01:59;;;;;;;6.07;3.83;;;;;;;;;;2074265;28;20184;-56
2022/06/12 06:02:59;;;;;;;7.45;3.65;;;;;;;;;;2074350;28;20284;-57
2022/06/12 06:04:00;;;;;;;8.32;3.35;;;;;;;;;;2072019;28;20173;-51
2022/06/12 06:05:01;;;;;;;9.75;3.50;;;;;;;;;;2074074;28;20185;-53
2022/06/12 06:06:01;;;;;;;7.75;3.10;;;;;;;;;;2073974;28;20273;-56
2022/06/12 06:07:02;;;;;;;7.13;3.20;;;;;;;;;;2074217;28;20172;-52
2022/06/12 06:08:02;;;;;;;8.32;3.50;;;;;;;;;;2073401;28;20188;-52
2022/06/12 06:09:04;;;;;;;7.53;3.03;;;;;;;;;;2065342;28;20174;-52
2022/06/12 06:10:06;;;;;;;6.47;3.08;;;;;;;;;;2072598;28;20169;-55
2022/06/12 06:11:07;;;;;;;6.45;3.45;;;;;;;;;;2074193;28;20169;-47
2022/06/12 06:12:08;;;;;;;9.48;3.22;;;;;;;;;;2073851;28;20173;-55
2022/06/12 06:13:09;;;;;;;5.82;3.10;;;;;;;;;;2074046;28;20177;-55
2022/06/12 06:14:09;;;;;;;6.20;3.53;;;;;;;;;;2073105;28;20255;-54
2022/06/12 06:15:10;;;;;;;8.90;3.72;;;;;;;;;;2073939;28;20169;-54
2022/06/12 06:16:10;;;;;;;5.45;3.13;;;;;;;;;;2073767;28;20188;-54
2022/06/12 06:17:11;;;;;;;8.68;3.35;;;;;;;;;;2073305;28;20181;-53
2022/06/12 06:18:11;;;;;;;7.03;3.42;;;;;;;;;;2073487;28;20545;-55
2022/06/12 06:19:13;;;;;;;4.47;2.75;;;;;;;;;;2073973;28;20549;-60
2022/06/12 06:20:16;;;;;;;6.43;3.13;;;;;;;;;;2074025;28;20165;-55
2022/06/12 06:21:16;;;;;;;5.90;2.90;;;;;;;;;;2074026;28;20522;-53
2022/06/12 06:22:18;;;;;;;12.27;3.63;;;;;;;;;;2074176;28;20272;-54
2022/06/12 06:23:18;;;;;;;7.95;3.45;;;;;;;;;;2073829;28;20201;-53
2022/06/12 06:24:19;;;;;;;4.60;3.08;;;;;;;;;;2073202;28;20165;-56
2022/06/12 06:25:20;;;;;;;7.05;3.20;;;;;;;;;;2073887;28;20161;-56
2022/06/12 06:26:20;;;;;;;8.63;3.05;;;;;;;;;;2074008;28;20283;-56
2022/06/12 06:27:21;;;;;;;6.38;3.28;;;;;;;;;;2074106;28;20534;-56